createdAt,value
2023-04-15T00:00:56.406Z,2.81
2023-04-15T00:03:23.681Z,2.82
2023-04-15T00:05:50.223Z,2.71
2023-04-15T00:08:16.855Z,2.70
2023-04-15T00:10:43.313Z,2.85
2023-04-15T00:13:09.796Z,2.87
2023-04-15T00:15:36.248Z,2.93
2023-04-15T00:18:02.664Z,2.85
2023-04-15T00:20:29.129Z,2.64
2023-04-15T00:22:56.036Z,2.85
2023-04-15T00:25:22.735Z,2.80
2023-04-15T00:27:51.479Z,2.80
2023-04-15T00:30:18.045Z,2.64
2023-04-15T00:32:44.479Z,2.84
2023-04-15T00:35:10.941Z,2.87
2023-04-15T00:37:37.646Z,2.89
2023-04-15T00:40:04.105Z,2.93
2023-04-15T00:42:30.796Z,2.90
2023-04-15T00:44:57.549Z,2.95
2023-04-15T00:47:24.123Z,2.87
2023-04-15T00:49:50.893Z,2.98
2023-04-15T00:52:17.369Z,3.00
2023-04-15T00:54:43.864Z,2.94
2023-04-15T00:57:10.296Z,2.99
2023-04-15T00:59:36.735Z,3.00
2023-04-15T01:02:03.432Z,3.00
2023-04-15T01:04:30.565Z,3.06
2023-04-15T01:06:57.337Z,2.97
2023-04-15T01:09:23.749Z,2.92
2023-04-15T01:11:50.242Z,2.83
2023-04-15T01:14:16.837Z,2.78
2023-04-15T01:16:43.655Z,2.84
2023-04-15T01:19:10.096Z,2.88
2023-04-15T01:21:36.505Z,2.87
2023-04-15T01:24:03.419Z,2.79
2023-04-15T01:26:29.987Z,2.72
2023-04-15T01:28:56.513Z,2.75
2023-04-15T01:31:24.355Z,2.85
2023-04-15T01:33:50.805Z,2.86
2023-04-15T01:36:17.284Z,2.95
2023-04-15T01:38:43.680Z,2.82
2023-04-15T01:41:10.107Z,2.81
2023-04-15T01:43:36.529Z,2.79
2023-04-15T01:46:03.291Z,2.74
2023-04-15T01:48:32.169Z,2.73
2023-04-15T01:51:00.669Z,2.80
2023-04-15T01:53:27.090Z,3.03
2023-04-15T01:55:53.567Z,2.81
2023-04-15T01:58:20.986Z,2.85
2023-04-15T02:00:47.431Z,2.97
2023-04-15T02:03:13.996Z,2.87
2023-04-15T02:05:40.510Z,2.84
2023-04-15T02:08:09.449Z,2.80
2023-04-15T02:10:35.933Z,2.93
2023-04-15T02:13:02.343Z,2.91
2023-04-15T02:15:28.967Z,2.92
2023-04-15T02:17:55.539Z,2.97
2023-04-15T02:20:22.378Z,2.92
2023-04-15T02:22:49.106Z,2.88
2023-04-15T02:25:15.747Z,2.98
2023-04-15T02:27:42.194Z,2.98
2023-04-15T02:30:08.807Z,2.94
2023-04-15T02:32:35.296Z,2.81
2023-04-15T02:35:01.946Z,2.85
2023-04-15T02:37:28.403Z,2.95
2023-04-15T02:39:55.165Z,2.95
2023-04-15T02:42:22.100Z,2.92
2023-04-15T02:44:48.580Z,2.87
2023-04-15T02:47:15.055Z,2.92
2023-04-15T02:49:41.624Z,2.90
2023-04-15T02:52:08.127Z,2.94
2023-04-15T02:54:34.541Z,2.94
2023-04-15T02:57:01.014Z,3.04
2023-04-15T02:59:27.716Z,3.00
2023-04-15T03:01:54.411Z,2.91
2023-04-15T03:04:20.989Z,2.99
2023-04-15T03:06:47.533Z,2.80
2023-04-15T03:09:14.001Z,2.73
2023-04-15T03:11:40.536Z,2.94
2023-04-15T03:14:07.078Z,2.92
2023-04-15T03:16:33.511Z,2.93
2023-04-15T03:19:00.219Z,2.93
2023-04-15T03:21:26.771Z,2.97
2023-04-15T03:23:53.262Z,3.01
2023-04-15T03:26:19.711Z,3.09
2023-04-15T03:28:48.419Z,3.04
2023-04-15T03:31:14.922Z,3.18
2023-04-15T03:33:41.353Z,3.22
2023-04-15T03:36:08.210Z,3.11
2023-04-15T03:38:34.732Z,3.06
2023-04-15T03:41:01.164Z,2.84
2023-04-15T03:43:28.564Z,2.89
2023-04-15T03:45:55.009Z,2.95
2023-04-15T03:48:21.647Z,2.93
2023-04-15T03:50:48.321Z,3.00
2023-04-15T03:53:14.787Z,3.07
2023-04-15T03:55:41.749Z,3.16
2023-04-15T03:58:08.380Z,3.22
2023-04-15T04:00:34.869Z,3.22
2023-04-15T04:03:02.032Z,3.25
2023-04-15T04:05:28.665Z,3.29
2023-04-15T04:07:55.099Z,3.22
2023-04-15T04:10:21.502Z,3.13
2023-04-15T04:12:47.901Z,3.03
2023-04-15T04:15:14.345Z,3.02
2023-04-15T04:17:40.944Z,2.99
2023-04-15T04:20:07.709Z,2.94
2023-04-15T04:22:34.391Z,2.95
2023-04-15T04:25:00.782Z,2.95
2023-04-15T04:27:27.419Z,3.02
2023-04-15T04:29:54.869Z,2.97
2023-04-15T04:32:21.534Z,2.94
2023-04-15T04:34:48.353Z,2.98
2023-04-15T04:37:14.778Z,2.97
2023-04-15T04:39:41.466Z,2.97
2023-04-15T04:42:08.127Z,3.00
2023-04-15T04:44:34.692Z,3.00
2023-04-15T04:47:02.095Z,3.04
2023-04-15T04:49:28.641Z,3.02
2023-04-15T04:51:55.035Z,3.06
2023-04-15T04:54:21.509Z,3.07
2023-04-15T04:56:47.975Z,3.10
2023-04-15T04:59:14.840Z,3.11
2023-04-15T05:01:41.604Z,3.09
2023-04-15T05:04:08.988Z,3.16
2023-04-15T05:06:35.630Z,3.15
2023-04-15T05:09:02.422Z,3.14
2023-04-15T05:11:29.306Z,3.14
2023-04-15T05:13:55.726Z,3.19
2023-04-15T05:16:22.232Z,3.29
2023-04-15T05:18:48.812Z,3.27
2023-04-15T05:21:15.417Z,3.32
2023-04-15T05:23:41.949Z,3.37
2023-04-15T05:26:08.350Z,3.36
2023-04-15T05:28:35.221Z,3.45
2023-04-15T05:31:01.684Z,3.40
2023-04-15T05:33:30.258Z,3.41
2023-04-15T05:35:57.883Z,3.44
2023-04-15T05:38:24.312Z,3.44
2023-04-15T05:40:51.057Z,3.44
2023-04-15T05:43:17.723Z,3.51
2023-04-15T05:45:44.978Z,3.47
2023-04-15T05:48:11.468Z,3.44
2023-04-15T05:50:38.556Z,3.34
2023-04-15T05:53:05.016Z,3.40
2023-04-15T05:55:31.454Z,3.49
2023-04-15T05:57:57.891Z,3.48
2023-04-15T06:00:24.375Z,3.47
2023-04-15T06:02:50.954Z,3.54
2023-04-15T06:05:17.399Z,3.59
2023-04-15T06:07:44.212Z,3.94
2023-04-15T06:10:11.370Z,4.44
2023-04-15T06:12:37.843Z,4.60
2023-04-15T06:15:04.297Z,4.45
2023-04-15T06:17:30.859Z,4.45
2023-04-15T06:19:57.312Z,4.44
2023-04-15T06:22:26.084Z,4.36
2023-04-15T06:24:52.498Z,4.36
2023-04-15T06:27:19.124Z,4.33
2023-04-15T06:29:45.594Z,4.31
2023-04-15T06:32:12.140Z,4.25
2023-04-15T06:34:38.623Z,4.33
2023-04-15T06:37:06.303Z,4.48
2023-04-15T06:39:32.890Z,4.41
2023-04-15T06:41:59.368Z,4.50
2023-04-15T06:44:25.786Z,4.40
2023-04-15T06:46:52.322Z,4.38
2023-04-15T06:49:18.736Z,4.31
2023-04-15T06:51:45.209Z,4.35
2023-04-15T06:54:11.631Z,4.44
2023-04-15T06:56:39.399Z,4.39
2023-04-15T06:59:05.850Z,4.46
2023-04-15T07:01:32.411Z,4.45
2023-04-15T07:03:58.910Z,4.46
2023-04-15T07:06:25.476Z,4.43
2023-04-15T07:08:52.122Z,4.33
2023-04-15T07:11:18.486Z,4.40
2023-04-15T07:13:47.023Z,4.41
2023-04-15T07:16:13.827Z,4.48
2023-04-15T07:18:40.428Z,4.53
2023-04-15T07:21:07.805Z,4.56
2023-04-15T07:23:34.269Z,4.57
2023-04-15T07:26:00.802Z,4.57
2023-04-15T07:28:27.214Z,4.56
2023-04-15T07:30:53.697Z,4.50
2023-04-15T07:33:20.335Z,4.60
2023-04-15T07:35:46.820Z,4.73
2023-04-15T07:38:13.971Z,4.87
2023-04-15T07:40:40.593Z,4.84
2023-04-15T07:43:07.076Z,4.80
2023-04-15T07:45:33.498Z,4.75
2023-04-15T07:48:00.452Z,4.76
2023-04-15T07:50:26.909Z,4.90
2023-04-15T07:52:53.432Z,5.00
2023-04-15T07:55:19.981Z,4.96
2023-04-15T07:57:46.467Z,5.02
2023-04-15T08:00:13.020Z,5.09
2023-04-15T08:02:40.492Z,4.97
2023-04-15T08:05:07.124Z,5.06
2023-04-15T08:07:34.120Z,5.01
2023-04-15T08:10:00.581Z,5.09
2023-04-15T08:12:27.213Z,5.13
2023-04-15T08:14:53.693Z,5.17
2023-04-15T08:17:20.288Z,5.27
2023-04-15T08:19:47.757Z,5.26
2023-04-15T08:22:17.784Z,5.43
2023-04-15T08:24:46.304Z,5.45
2023-04-15T08:27:15.068Z,5.48
2023-04-15T08:29:42.585Z,5.50
2023-04-15T08:32:09.029Z,5.43
2023-04-15T08:34:35.448Z,5.46
2023-04-15T08:37:04.005Z,5.43
2023-04-15T08:39:31.484Z,5.47
2023-04-15T08:41:58.018Z,5.49
2023-04-15T08:44:24.480Z,5.43
2023-04-15T08:46:51.934Z,5.41
2023-04-15T08:49:18.803Z,5.54
2023-04-15T08:51:45.201Z,5.50
2023-04-15T08:54:11.736Z,5.60
2023-04-15T08:56:38.470Z,5.56
2023-04-15T08:59:06.187Z,5.42
2023-04-15T09:01:33.018Z,5.49
2023-04-15T09:03:59.681Z,5.49
2023-04-15T09:06:26.177Z,5.37
2023-04-15T09:08:54.281Z,5.32
2023-04-15T09:11:21.230Z,5.41
2023-04-15T09:13:47.911Z,5.52
2023-04-15T09:16:14.509Z,5.56
2023-04-15T09:18:41.090Z,5.59
2023-04-15T09:21:07.923Z,5.59
2023-04-15T09:23:34.601Z,5.60
2023-04-15T09:26:01.008Z,5.52
2023-04-15T09:28:27.731Z,5.59
2023-04-15T09:30:54.180Z,5.53
2023-04-15T09:33:20.628Z,5.50
2023-04-15T09:35:47.091Z,5.48
2023-04-15T09:38:13.806Z,5.57
2023-04-15T09:40:40.250Z,5.49
2023-04-15T09:43:06.765Z,5.42
2023-04-15T09:45:33.370Z,5.42
2023-04-15T09:48:00.122Z,5.46
2023-04-15T09:50:29.039Z,5.53
2023-04-15T09:52:55.544Z,5.61
2023-04-15T09:55:22.003Z,5.53
2023-04-15T09:57:48.504Z,5.59
2023-04-15T10:00:17.414Z,5.49
2023-04-15T10:02:44.049Z,5.63
2023-04-15T10:05:10.722Z,5.66
2023-04-15T10:07:37.145Z,5.74
2023-04-15T10:10:03.884Z,5.72
2023-04-15T10:12:30.520Z,5.83
2023-04-15T10:14:57.340Z,6.01
2023-04-15T10:17:23.812Z,6.09
2023-04-15T10:19:50.392Z,6.05
2023-04-15T10:22:16.940Z,5.98
2023-04-15T10:24:43.369Z,5.95
2023-04-15T10:27:09.845Z,5.88
2023-04-15T10:29:36.231Z,5.80
2023-04-15T10:32:02.689Z,5.70
2023-04-15T10:34:29.094Z,5.76
2023-04-15T10:36:55.760Z,5.93
2023-04-15T10:39:22.140Z,5.89
2023-04-15T10:41:48.572Z,5.90
2023-04-15T10:44:15.007Z,5.92
2023-04-15T10:46:41.461Z,5.65
2023-04-15T10:49:07.939Z,5.66
2023-04-15T10:51:34.331Z,5.77
2023-04-15T10:54:01.170Z,5.80
2023-04-15T10:56:28.029Z,5.90
2023-04-15T11:30:35.681Z,5.78
2023-04-15T11:33:02.691Z,5.67
2023-04-15T11:35:29.371Z,5.64
2023-04-15T11:37:55.846Z,5.76
2023-04-15T11:40:22.318Z,5.92
2023-04-15T11:42:49.999Z,5.97
2023-04-15T11:45:17.006Z,5.84
2023-04-15T11:47:43.657Z,5.83
2023-04-15T11:50:10.163Z,5.97
2023-04-15T11:52:36.615Z,5.92
2023-04-15T11:55:03.120Z,5.97
2023-04-15T11:57:29.588Z,5.85
2023-04-15T11:59:56.242Z,5.87
2023-04-15T14:28:28.460Z,7.19
2023-04-15T14:30:55.097Z,7.08
2023-04-15T14:33:21.705Z,6.97
2023-04-15T14:35:48.174Z,6.55
2023-04-15T14:38:14.988Z,6.57
2023-04-15T14:40:44.834Z,6.66
2023-04-15T14:43:11.353Z,6.53
2023-04-15T14:45:39.477Z,6.30
2023-04-15T14:48:08.703Z,6.25
2023-04-15T14:50:35.476Z,6.43
2023-04-15T14:53:02.856Z,6.66
2023-04-15T14:55:32.235Z,6.50
2023-04-15T14:57:59.021Z,6.73
2023-04-15T15:00:25.502Z,6.85
2023-04-15T15:02:52.235Z,6.88
2023-04-15T15:05:19.502Z,6.82
2023-04-15T15:07:46.378Z,6.68
2023-04-15T15:10:13.440Z,6.63
2023-04-15T15:12:40.084Z,6.64
2023-04-15T15:15:15.612Z,6.61
2023-04-15T15:17:53.322Z,6.48
2023-04-15T15:20:21.874Z,6.35
2023-04-15T15:22:48.451Z,6.42
2023-04-15T15:25:15.270Z,6.39
2023-04-15T15:27:41.818Z,6.53
2023-04-15T15:30:10.300Z,6.30
2023-04-15T15:32:39.894Z,6.29
2023-04-15T15:35:06.827Z,6.01
2023-04-15T15:37:33.879Z,6.11
2023-04-15T15:40:00.618Z,6.21
2023-04-15T15:42:27.387Z,6.22
2023-04-15T15:44:53.899Z,6.24
2023-04-15T15:47:20.480Z,6.31
2023-04-15T15:49:47.025Z,6.25
2023-04-15T15:52:13.471Z,6.42
2023-04-15T15:54:40.089Z,6.61
2023-04-15T15:57:06.656Z,6.47
2023-04-15T15:59:34.266Z,6.58
2023-04-15T16:02:03.092Z,6.51
2023-04-15T16:04:30.353Z,6.14
2023-04-15T16:06:57.101Z,6.28
2023-04-15T16:46:17.771Z,5.64
2023-04-15T16:48:44.594Z,5.84
2023-04-15T16:51:20.473Z,5.77
2023-04-15T16:53:47.819Z,6.03
2023-04-15T16:56:14.292Z,6.07
2023-04-15T16:58:41.188Z,6.09
2023-04-15T17:01:07.829Z,6.11
2023-04-15T17:03:34.692Z,5.93
2023-04-15T17:06:01.632Z,5.60
2023-04-15T17:08:28.593Z,5.58
2023-04-15T17:10:55.275Z,5.66
2023-04-15T17:13:25.167Z,5.69
2023-04-15T17:15:54.932Z,5.75
2023-04-15T17:18:22.107Z,5.78
2023-04-15T17:20:48.544Z,5.66
2023-04-15T17:23:15.366Z,5.83
2023-04-15T17:25:41.950Z,5.97
2023-04-15T17:28:08.990Z,6.10
2023-04-15T17:30:35.452Z,6.15
2023-04-15T17:33:02.435Z,6.09
2023-04-15T17:35:54.010Z,5.69
2023-04-15T17:38:21.427Z,5.53
2023-04-15T17:40:48.727Z,5.53
2023-04-15T17:43:15.991Z,5.35
2023-04-15T17:45:42.776Z,5.45
2023-04-15T17:48:09.754Z,5.62
2023-04-15T17:50:39.428Z,5.53
2023-04-15T17:53:07.104Z,5.43
2023-04-15T17:55:33.600Z,5.46
2023-04-15T17:58:00.412Z,5.43
2023-04-15T18:00:27.273Z,5.38
2023-04-15T18:02:55.867Z,5.39
2023-04-15T18:05:22.865Z,5.40
2023-04-15T18:07:49.797Z,5.40
2023-04-15T18:10:16.847Z,5.34
2023-04-15T18:12:44.626Z,5.28
2023-04-15T18:15:11.670Z,5.31
2023-04-15T18:17:38.403Z,5.35
2023-04-15T18:20:05.604Z,5.35
2023-04-15T18:22:32.508Z,5.22
2023-04-15T18:24:59.182Z,5.15
2023-04-15T18:27:26.811Z,5.12
2023-04-15T18:29:54.787Z,5.17
2023-04-15T18:32:21.782Z,5.15
2023-04-15T18:34:50.548Z,5.13
2023-04-15T18:37:17.387Z,5.11
2023-04-15T18:39:46.039Z,5.09
2023-04-15T18:42:13.083Z,5.10
2023-04-15T18:44:40.641Z,5.11
2023-04-15T18:47:07.618Z,5.01
2023-04-15T18:49:38.018Z,5.17
2023-04-15T18:52:05.223Z,4.97
2023-04-15T18:54:35.525Z,4.82
2023-04-15T18:57:02.115Z,4.85
2023-04-15T18:59:31.980Z,4.95
2023-04-15T19:01:59.955Z,5.01
2023-04-15T19:04:31.007Z,5.06
2023-04-15T19:07:00.899Z,4.86
2023-04-15T19:09:30.147Z,4.78
2023-04-15T19:11:57.757Z,4.88
2023-04-15T19:14:24.522Z,4.91
2023-04-15T19:16:51.849Z,4.88
2023-04-15T19:19:18.972Z,4.88
2023-04-15T19:21:46.811Z,4.94
2023-04-15T19:24:13.998Z,4.91
2023-04-15T19:26:41.455Z,4.94
2023-04-15T19:29:08.037Z,4.91
2023-04-15T19:31:36.083Z,4.84
2023-04-15T19:34:03.643Z,4.94
2023-04-15T19:36:31.638Z,4.81
2023-04-15T19:38:58.758Z,4.87
2023-04-15T19:41:25.961Z,4.91
2023-04-15T19:43:52.679Z,4.86
2023-04-15T19:46:19.631Z,4.77
2023-04-15T19:48:48.407Z,4.88
2023-04-15T19:51:16.432Z,5.06
2023-04-15T19:53:43.530Z,5.04
2023-04-15T19:56:10.740Z,4.91
2023-04-15T19:58:37.756Z,4.75
2023-04-15T20:01:04.799Z,4.65
2023-04-15T20:03:31.824Z,4.54
2023-04-15T20:05:58.939Z,4.48
2023-04-15T20:08:26.637Z,4.53
2023-04-15T20:10:53.755Z,4.52
2023-04-15T20:13:21.005Z,4.47
2023-04-15T20:15:48.686Z,4.42
2023-04-15T20:18:15.558Z,4.46
2023-04-15T20:20:42.481Z,4.40
2023-04-15T20:23:10.104Z,4.45
2023-04-15T20:25:37.707Z,4.51
2023-04-15T20:28:04.615Z,4.54
2023-04-15T20:30:32.051Z,4.56
2023-04-15T20:32:59.066Z,4.59
2023-04-15T20:35:25.881Z,4.60
2023-04-15T20:37:54.648Z,4.59
2023-04-15T20:40:24.360Z,4.76
2023-04-15T20:42:55.269Z,4.82
2023-04-15T20:45:23.014Z,4.79
2023-04-15T20:47:51.044Z,4.74
2023-04-15T20:50:21.061Z,4.71
2023-04-15T20:52:47.632Z,4.69
2023-04-15T20:55:14.249Z,4.66
2023-04-15T20:57:40.793Z,4.64
2023-04-15T21:00:11.420Z,4.63
2023-04-15T21:02:38.040Z,4.62
2023-04-15T21:05:05.281Z,4.65
2023-04-15T21:07:32.195Z,4.65
2023-04-15T21:09:58.785Z,4.66
2023-04-15T21:12:25.820Z,4.65
2023-04-15T21:14:52.401Z,4.63
2023-04-15T21:17:19.196Z,4.61
2023-04-15T21:19:46.071Z,4.61
2023-04-15T21:22:12.709Z,4.64
2023-04-15T21:24:39.269Z,4.63
2023-04-15T21:27:05.708Z,4.67
2023-04-15T21:29:32.119Z,4.72
2023-04-15T21:31:58.636Z,4.69
2023-04-15T21:34:30.226Z,4.79
2023-04-15T21:36:56.911Z,4.78
2023-04-15T21:39:24.640Z,4.79
2023-04-15T21:41:54.249Z,4.88
2023-04-15T21:44:20.708Z,4.93
2023-04-15T21:46:47.284Z,4.76
2023-04-15T21:49:13.752Z,4.57
2023-04-15T21:51:40.234Z,4.48
2023-04-15T21:54:06.694Z,4.55
2023-04-15T21:56:33.286Z,4.59
2023-04-15T21:59:00.401Z,4.69
2023-04-15T22:01:27.458Z,4.77
2023-04-15T22:03:54.254Z,4.80
2023-04-15T22:06:20.927Z,4.79
2023-04-15T22:08:56.022Z,4.76
2023-04-15T22:11:23.696Z,4.83
2023-04-15T22:13:50.155Z,4.93
2023-04-15T22:16:16.607Z,5.00
2023-04-15T22:18:43.159Z,5.06
2023-04-15T22:21:09.917Z,5.07
2023-04-15T22:23:39.328Z,5.19
2023-04-15T22:26:05.875Z,5.09
2023-04-15T22:28:32.255Z,5.10
2023-04-15T22:30:59.222Z,5.24
2023-04-15T22:33:25.638Z,5.12
2023-04-15T22:35:54.496Z,5.16
2023-04-15T22:38:20.936Z,4.98
2023-04-15T22:40:47.471Z,4.78
2023-04-15T22:43:13.900Z,4.58
2023-04-15T22:45:40.420Z,4.55
2023-04-15T22:48:06.956Z,4.54
2023-04-15T22:50:33.378Z,4.54
2023-04-15T22:52:59.818Z,4.48
2023-04-15T22:55:26.276Z,4.49
2023-04-15T22:57:53.104Z,4.45
2023-04-15T23:00:19.800Z,4.47
2023-04-15T23:02:46.303Z,4.43
2023-04-15T23:05:13.597Z,4.45
2023-04-15T23:07:40.243Z,4.31
2023-04-15T23:10:06.718Z,4.41
2023-04-15T23:12:33.198Z,4.43
2023-04-15T23:14:59.686Z,4.43
2023-04-15T23:17:26.168Z,4.46
2023-04-15T23:19:54.284Z,4.52
2023-04-15T23:22:20.799Z,4.52
2023-04-15T23:24:47.310Z,4.53
2023-04-15T23:27:13.818Z,4.54
2023-04-15T23:29:40.416Z,4.55
2023-04-15T23:32:06.825Z,4.56
2023-04-15T23:34:34.586Z,4.58
2023-04-15T23:37:01.159Z,4.45
2023-04-15T23:39:27.980Z,4.57
2023-04-15T23:41:54.512Z,4.59
2023-04-15T23:44:21.398Z,4.65
2023-04-15T23:46:48.138Z,4.70
2023-04-15T23:49:14.608Z,4.63
2023-04-15T23:51:44.513Z,4.59
2023-04-15T23:54:11.426Z,4.61
2023-04-15T23:56:37.843Z,4.64
2023-04-15T23:59:04.330Z,4.64
